Weather at Hope Airport / FVRD Regional Airpark

Public forecast

Using degrees Celsius for public forecast. Weather courtesy of forecast.io.

Current aviation weather report (METAR) for Hope Airport / FVRD Regional Airpark

2022/12/03 15:00 (retrieved 34 minutes ago)

CYHE 031500Z AUTO /////KT RMK WIND MISG CLD MISG WX MISG VIS MISG PCPN MISG PRES MISG T MISG DP MISG ICE MISG DENSITY ALT MISG

Closest aviation forecast (TAF) to Hope Airport / FVRD Regional Airpark

Closest forecast is Abbotsford International Airport, 39.7 nm (73.6 km) WSW.

2022/12/03 12:42 (retrieved 3 hours ago)

TAF CYXX 031140Z 0312/0412 05006KT P6SM BKN040 BECMG 0315/0317 05012G22KT SCT050 FM032200 06015KT P6SM SKC RMK NXT FCST BY 031800Z